createdAt,value
2022-09-25T00:00:59.572Z,29.30
2022-09-25T00:03:28.590Z,29.10
2022-09-25T00:06:05.217Z,29.97
2022-09-25T00:08:32.342Z,28.80
2022-09-25T00:10:59.207Z,35.03
2022-09-25T00:13:26.343Z,34.87
2022-09-25T00:15:55.956Z,34.87
2022-09-25T00:18:43.372Z,32.03
2022-09-25T00:21:15.698Z,33.43
2022-09-25T00:23:44.690Z,32.93
2022-09-25T00:26:12.685Z,30.63
2022-09-25T00:28:40.999Z,29.80
2022-09-25T00:30:43.283Z,19.60
2022-09-25T00:31:09.261Z,30.53
2022-09-25T00:33:11.752Z,22.83
2022-09-25T00:33:36.704Z,31.03
2022-09-25T00:36:06.149Z,30.00
2022-09-25T00:38:13.217Z,22.13
2022-09-25T00:38:34.277Z,30.17
2022-09-25T00:41:01.821Z,30.20
2022-09-25T00:43:16.366Z,27.53
2022-09-25T00:43:38.037Z,30.20
2022-09-25T00:46:16.581Z,29.60
2022-09-25T00:48:19.445Z,21.60
2022-09-25T00:48:53.747Z,29.40
2022-09-25T00:50:52.423Z,21.90
2022-09-25T00:51:29.594Z,32.53
2022-09-25T00:53:23.018Z,18.13
2022-09-25T00:54:01.216Z,30.73
2022-09-25T00:55:51.894Z,24.60
2022-09-25T00:56:32.641Z,28.10
2022-09-25T00:58:23.742Z,20.23
2022-09-25T00:58:59.420Z,28.40
2022-09-25T01:00:54.988Z,24.00
2022-09-25T01:01:26.022Z,30.40
2022-09-25T01:03:23.825Z,21.13
2022-09-25T01:03:52.725Z,31.20
2022-09-25T01:05:52.798Z,21.83
2022-09-25T01:06:19.824Z,29.80
2022-09-25T01:08:24.391Z,23.13
2022-09-25T01:08:47.071Z,29.00
2022-09-25T01:10:53.544Z,19.63
2022-09-25T01:11:13.856Z,29.57
2022-09-25T01:13:22.061Z,21.37
2022-09-25T01:13:41.230Z,29.03
2022-09-25T01:15:58.366Z,23.87
2022-09-25T01:16:59.365Z,30.70
2022-09-25T01:18:42.031Z,21.27
2022-09-25T01:19:44.769Z,30.40
2022-09-25T01:21:32.778Z,20.43
2022-09-25T01:22:34.804Z,30.00
2022-09-25T01:25:32.546Z,31.27
2022-09-25T01:28:29.418Z,32.90
2022-09-25T01:30:20.913Z,17.97
2022-09-25T01:31:02.864Z,32.30
2022-09-25T01:32:59.543Z,19.37
2022-09-25T01:33:36.944Z,32.93
2022-09-25T01:36:14.991Z,33.77
2022-09-25T01:38:21.094Z,18.23
2022-09-25T01:38:43.860Z,34.43
2022-09-25T01:41:28.384Z,34.50
2022-09-25T01:43:28.574Z,18.47
2022-09-25T01:44:03.525Z,32.73
2022-09-25T01:46:01.289Z,19.07
2022-09-25T01:46:35.169Z,34.37
2022-09-25T01:48:32.731Z,15.97
2022-09-25T01:49:30.351Z,33.27
2022-09-25T01:51:58.529Z,31.50
2022-09-25T01:54:34.380Z,36.43
2022-09-25T01:57:24.055Z,33.60
2022-09-25T01:58:54.568Z,14.83
2022-09-25T02:00:06.608Z,34.63
2022-09-25T02:01:28.428Z,18.10
2022-09-25T02:02:39.982Z,36.80
2022-09-25T02:04:00.719Z,14.73
2022-09-25T02:05:18.302Z,34.93
2022-09-25T02:06:29.540Z,15.77
2022-09-25T02:07:56.687Z,33.30
2022-09-25T02:09:02.711Z,15.20
2022-09-25T02:10:33.997Z,32.07
2022-09-25T02:11:39.769Z,12.63
2022-09-25T02:13:13.214Z,33.13
2022-09-25T02:14:13.053Z,14.13
2022-09-25T02:15:47.909Z,33.47
2022-09-25T02:18:36.328Z,33.90
2022-09-25T02:21:10.247Z,32.87
2022-09-25T02:24:01.107Z,32.60
2022-09-25T02:26:32.865Z,32.40
2022-09-25T02:27:15.726Z,14.90
2022-09-25T02:29:00.324Z,31.23
2022-09-25T02:29:44.294Z,11.40
2022-09-25T02:32:04.820Z,28.20
2022-09-25T02:34:32.777Z,33.20
2022-09-25T02:34:49.364Z,12.93
2022-09-25T02:36:59.938Z,30.63
2022-09-25T02:37:18.769Z,10.40
2022-09-25T02:39:29.420Z,31.50
2022-09-25T02:39:50.331Z,12.10
2022-09-25T02:42:19.175Z,32.17
2022-09-25T02:42:32.085Z,13.30
2022-09-25T02:45:08.107Z,30.07
2022-09-25T02:45:11.588Z,11.63
2022-09-25T02:47:46.535Z,10.00
2022-09-25T02:47:54.977Z,29.70
2022-09-25T02:50:27.657Z,30.57
2022-09-25T02:52:54.284Z,10.30
2022-09-25T02:53:23.626Z,30.40
2022-09-25T02:56:08.505Z,29.10
2022-09-25T02:57:58.611Z,9.00
2022-09-25T02:58:39.844Z,29.10
2022-09-25T03:01:10.389Z,30.60
2022-09-25T03:02:59.592Z,8.83
2022-09-25T03:03:39.383Z,29.70
2022-09-25T03:05:28.184Z,8.10
2022-09-25T03:06:08.162Z,30.00
2022-09-25T03:08:38.124Z,30.33
2022-09-25T03:10:48.265Z,8.37
2022-09-25T03:11:11.019Z,31.23
2022-09-25T03:13:37.817Z,32.43
2022-09-25T03:15:51.855Z,8.07
2022-09-25T03:16:20.145Z,32.63
2022-09-25T03:18:21.917Z,7.90
2022-09-25T03:18:47.952Z,28.80
2022-09-25T03:21:14.569Z,30.60
2022-09-25T03:23:41.223Z,30.60
2022-09-25T03:26:08.000Z,30.17
2022-09-25T03:28:30.018Z,7.80
2022-09-25T03:28:35.008Z,29.90
2022-09-25T03:30:59.477Z,8.87
2022-09-25T03:31:06.606Z,29.17
2022-09-25T03:33:29.499Z,7.87
2022-09-25T03:33:38.570Z,28.00
2022-09-25T03:36:10.952Z,28.47
2022-09-25T03:38:38.683Z,26.30
2022-09-25T03:41:08.916Z,29.27
2022-09-25T03:41:11.479Z,7.20
2022-09-25T03:43:37.215Z,27.50
2022-09-25T03:43:40.276Z,7.37
2022-09-25T03:46:05.359Z,27.33
2022-09-25T03:46:09.744Z,9.10
2022-09-25T03:48:32.530Z,24.93
2022-09-25T03:48:39.691Z,6.80
2022-09-25T03:50:59.590Z,26.30
2022-09-25T03:51:08.931Z,8.97
2022-09-25T03:53:26.545Z,26.93
2022-09-25T03:55:53.481Z,25.07
2022-09-25T03:58:20.232Z,23.50
2022-09-25T04:00:47.489Z,25.80
2022-09-25T04:01:19.413Z,6.47
2022-09-25T04:03:15.290Z,24.20
2022-09-25T04:03:49.652Z,6.67
2022-09-25T04:05:43.429Z,22.53
2022-09-25T04:08:10.694Z,23.87
2022-09-25T04:10:38.774Z,23.87
2022-09-25T04:13:06.659Z,22.00
2022-09-25T04:13:59.666Z,8.20
2022-09-25T04:15:33.855Z,24.07
2022-09-25T04:16:29.880Z,8.07
2022-09-25T04:18:05.778Z,21.93
2022-09-25T04:18:59.864Z,7.13
2022-09-25T04:20:32.831Z,22.73
2022-09-25T04:21:28.693Z,7.93
2022-09-25T04:22:59.373Z,22.90
2022-09-25T04:25:25.991Z,21.00
2022-09-25T04:26:48.060Z,6.77
2022-09-25T04:27:55.418Z,20.83
2022-09-25T04:30:26.516Z,21.07
2022-09-25T04:32:09.782Z,5.80
2022-09-25T04:33:12.311Z,21.00
2022-09-25T04:34:38.327Z,6.50
2022-09-25T04:35:38.914Z,20.90
2022-09-25T04:38:05.512Z,20.40
2022-09-25T04:39:34.791Z,5.80
2022-09-25T04:40:32.765Z,19.60
2022-09-25T04:43:03.268Z,20.70
2022-09-25T04:44:31.627Z,5.30
2022-09-25T04:45:30.933Z,21.07
2022-09-25T04:46:59.850Z,4.70
2022-09-25T04:47:59.944Z,20.60
2022-09-25T04:50:28.138Z,21.80
2022-09-25T04:52:56.541Z,20.27
2022-09-25T04:55:24.272Z,21.30
2022-09-25T04:57:10.022Z,5.00
2022-09-25T04:57:58.827Z,19.07
2022-09-25T04:59:38.634Z,4.20
2022-09-25T05:00:31.790Z,19.80
2022-09-25T05:02:07.068Z,3.73
2022-09-25T05:02:58.923Z,19.47
2022-09-25T05:05:30.398Z,20.27
2022-09-25T05:07:10.626Z,4.73
2022-09-25T05:08:01.364Z,21.37
2022-09-25T05:09:38.984Z,3.63
2022-09-25T05:10:30.578Z,22.50
2022-09-25T05:12:08.167Z,3.60
2022-09-25T05:12:58.981Z,19.17
2022-09-25T05:14:36.516Z,5.90
2022-09-25T05:15:26.601Z,19.93
2022-09-25T05:17:05.192Z,3.50
2022-09-25T05:18:00.627Z,19.13
2022-09-25T05:19:33.753Z,4.13
2022-09-25T05:20:27.174Z,17.90
2022-09-25T05:22:59.647Z,20.57
2022-09-25T05:24:39.340Z,4.77
2022-09-25T05:25:27.057Z,19.83
2022-09-25T05:27:08.199Z,4.33
2022-09-25T05:27:58.330Z,19.40
2022-09-25T05:30:26.071Z,19.77
2022-09-25T05:32:10.256Z,4.60
2022-09-25T05:32:53.673Z,18.97
2022-09-25T05:35:23.372Z,20.27
2022-09-25T05:37:11.919Z,5.00
2022-09-25T05:37:50.660Z,19.93
2022-09-25T05:39:41.620Z,4.93
2022-09-25T05:40:20.126Z,17.13
2022-09-25T05:42:10.030Z,4.53
2022-09-25T05:42:47.859Z,16.67
2022-09-25T05:44:40.506Z,4.20
2022-09-25T05:45:15.398Z,16.97
2022-09-25T05:47:08.860Z,3.63
2022-09-25T05:47:43.442Z,17.70
2022-09-25T05:49:38.770Z,4.60
2022-09-25T05:50:13.259Z,17.67
2022-09-25T05:52:09.383Z,4.60
2022-09-25T05:52:40.171Z,17.47
2022-09-25T05:55:08.404Z,19.23
2022-09-25T05:57:36.153Z,18.60
2022-09-25T06:00:05.990Z,18.33
2022-09-25T06:02:32.541Z,17.30
2022-09-25T06:04:59.305Z,19.03
2022-09-25T06:07:26.032Z,18.07
2022-09-25T06:09:52.575Z,16.23
2022-09-25T06:12:19.599Z,14.33
2022-09-25T06:14:46.549Z,18.30
2022-09-25T06:17:13.738Z,15.90
2022-09-25T06:19:40.352Z,16.83
2022-09-25T06:22:06.853Z,17.73
2022-09-25T06:24:33.378Z,18.20
2022-09-25T06:26:59.874Z,18.87
2022-09-25T06:29:26.406Z,18.67
2022-09-25T06:31:53.285Z,17.93
2022-09-25T06:33:17.206Z,4.33
2022-09-25T06:34:20.072Z,16.20
2022-09-25T06:35:47.115Z,5.33
2022-09-25T06:36:46.640Z,18.37
2022-09-25T06:38:17.028Z,4.37
2022-09-25T06:39:13.152Z,17.30
2022-09-25T06:41:41.051Z,18.20
2022-09-25T06:43:18.658Z,4.53
2022-09-25T06:44:09.089Z,15.10
2022-09-25T06:45:48.993Z,4.13
2022-09-25T06:46:36.631Z,17.30
2022-09-25T06:48:21.974Z,5.33
2022-09-25T06:49:03.392Z,16.00
2022-09-25T06:51:34.735Z,17.40
2022-09-25T06:54:01.400Z,19.47
2022-09-25T06:56:27.924Z,18.83
2022-09-25T06:58:33.191Z,4.60
2022-09-25T06:58:54.858Z,20.30
2022-09-25T07:01:21.568Z,19.57
2022-09-25T07:03:49.655Z,17.90
2022-09-25T07:06:19.875Z,17.40
2022-09-25T07:08:48.059Z,17.53
2022-09-25T07:08:56.937Z,3.80
2022-09-25T07:11:19.917Z,15.33
2022-09-25T07:13:47.241Z,15.90
2022-09-25T07:14:04.501Z,3.73
2022-09-25T07:16:17.017Z,14.57
2022-09-25T07:18:44.470Z,11.70
2022-09-25T07:21:14.051Z,13.43
2022-09-25T07:21:47.129Z,5.00
2022-09-25T07:23:41.984Z,11.67
2022-09-25T07:24:15.388Z,3.83
2022-09-25T07:26:14.675Z,10.30
2022-09-25T07:26:43.688Z,3.90
2022-09-25T07:28:42.767Z,8.97
2022-09-25T07:29:12.660Z,4.20
2022-09-25T07:31:18.487Z,5.90
2022-09-25T07:33:46.069Z,5.30
2022-09-25T07:36:13.777Z,4.60
2022-09-25T07:36:52.892Z,3.10
2022-09-25T07:38:41.080Z,4.20
2022-09-25T07:39:21.253Z,3.33
2022-09-25T07:41:13.103Z,4.30
2022-09-25T07:41:50.003Z,3.93
2022-09-25T07:43:40.449Z,3.83
2022-09-25T07:44:28.501Z,3.10
2022-09-25T07:46:07.311Z,3.43
2022-09-25T07:46:59.630Z,2.77
2022-09-25T07:48:33.892Z,3.70
2022-09-25T07:49:30.139Z,3.10
2022-09-25T07:51:05.562Z,2.90
2022-09-25T07:53:32.226Z,2.40
2022-09-25T07:56:05.282Z,2.60
2022-09-25T07:57:00.840Z,2.90
2022-09-25T07:58:33.008Z,3.00
2022-09-25T07:59:29.570Z,3.20
2022-09-25T08:01:01.636Z,2.50
2022-09-25T08:03:29.162Z,2.57
2022-09-25T08:06:04.408Z,2.27
2022-09-25T08:07:19.350Z,3.07
2022-09-25T08:08:33.179Z,2.23
2022-09-25T08:09:50.056Z,2.80
2022-09-25T08:11:06.962Z,2.57
2022-09-25T08:12:19.623Z,3.40
2022-09-25T08:13:34.640Z,2.53
2022-09-25T08:16:13.325Z,2.40
2022-09-25T08:17:16.514Z,2.83
2022-09-25T08:18:41.717Z,2.80
2022-09-25T08:21:09.464Z,2.60
2022-09-25T08:22:14.160Z,2.90
2022-09-25T08:23:36.735Z,2.83
2022-09-25T08:24:42.240Z,2.80
2022-09-25T08:26:03.327Z,2.63
2022-09-25T08:27:10.145Z,4.00
2022-09-25T08:28:29.892Z,2.80
2022-09-25T08:29:39.426Z,3.70
2022-09-25T08:30:59.489Z,2.93
2022-09-25T08:32:08.725Z,4.07
2022-09-25T08:33:27.322Z,3.90
2022-09-25T08:35:59.152Z,3.83
2022-09-25T08:37:13.748Z,3.10
2022-09-25T08:38:26.623Z,3.70
2022-09-25T08:40:58.297Z,4.03
2022-09-25T08:42:21.923Z,2.90
2022-09-25T08:43:26.443Z,4.70
2022-09-25T08:46:13.454Z,5.10
2022-09-25T08:49:05.997Z,5.10
2022-09-25T08:50:31.262Z,2.60
2022-09-25T08:51:40.333Z,5.40
2022-09-25T08:54:07.468Z,6.07
2022-09-25T08:56:35.669Z,5.97
2022-09-25T08:58:44.749Z,3.77
2022-09-25T08:59:32.430Z,6.43
2022-09-25T09:01:30.949Z,2.67
2022-09-25T09:02:10.394Z,7.67
2022-09-25T09:04:51.655Z,7.77
2022-09-25T09:06:36.282Z,3.00
2022-09-25T09:07:37.661Z,7.50
2022-09-25T09:10:48.176Z,6.73
2022-09-25T09:11:57.391Z,1.90
2022-09-25T09:13:39.888Z,6.53
2022-09-25T09:14:47.197Z,2.30
2022-09-25T09:16:19.261Z,7.03
2022-09-25T09:17:22.609Z,2.57
2022-09-25T09:18:45.943Z,6.37
2022-09-25T09:21:27.932Z,6.40
2022-09-25T09:22:53.462Z,2.30
2022-09-25T09:24:24.859Z,7.17
2022-09-25T09:26:59.968Z,7.90
2022-09-25T09:28:52.727Z,2.30
2022-09-25T09:29:38.412Z,7.77
2022-09-25T09:31:41.559Z,2.50
2022-09-25T09:32:18.185Z,9.03
2022-09-25T09:34:54.049Z,2.50
2022-09-25T09:35:04.794Z,9.17
2022-09-25T09:37:56.617Z,8.20
2022-09-25T09:40:34.155Z,2.27
2022-09-25T09:40:39.303Z,8.83
2022-09-25T09:43:57.875Z,8.20
2022-09-25T09:46:57.038Z,10.03
2022-09-25T09:49:36.013Z,10.43
2022-09-25T09:51:43.948Z,2.17
2022-09-25T09:52:17.622Z,10.60
2022-09-25T09:54:51.033Z,11.27
2022-09-25T09:56:54.044Z,2.53
2022-09-25T09:57:43.520Z,12.97
2022-09-25T09:59:27.673Z,2.70
2022-09-25T10:00:18.246Z,12.00
2022-09-25T10:02:12.669Z,2.10
2022-09-25T10:02:56.427Z,15.10
2022-09-25T10:05:27.775Z,15.70
2022-09-25T10:07:29.794Z,2.97
2022-09-25T10:07:54.659Z,15.10
2022-09-25T10:10:02.344Z,2.53
2022-09-25T10:10:27.986Z,14.73
2022-09-25T10:12:34.411Z,3.27
2022-09-25T10:12:57.000Z,15.20
2022-09-25T10:15:46.216Z,16.30
2022-09-25T10:18:13.690Z,16.47
2022-09-25T10:18:18.288Z,3.07
2022-09-25T10:20:44.499Z,15.90
2022-09-25T10:20:51.300Z,2.80
2022-09-25T10:23:33.744Z,15.70
2022-09-25T10:23:37.883Z,2.70
2022-09-25T10:26:00.763Z,14.70
2022-09-25T10:28:34.142Z,18.23
2022-09-25T10:31:02.561Z,15.30
2022-09-25T10:33:32.957Z,16.10
2022-09-25T10:35:59.985Z,14.60
2022-09-25T10:38:29.635Z,14.07
2022-09-25T10:41:14.569Z,13.67
2022-09-25T10:43:58.332Z,13.40
2022-09-25T10:45:32.187Z,3.63
2022-09-25T10:46:50.685Z,13.07
2022-09-25T10:49:44.959Z,12.77
2022-09-25T10:52:14.464Z,10.70
2022-09-25T10:54:45.287Z,11.07
2022-09-25T10:56:50.915Z,3.13
2022-09-25T10:57:19.880Z,11.50
2022-09-25T10:59:21.282Z,2.70
2022-09-25T10:59:51.717Z,10.57
2022-09-25T11:01:56.360Z,2.83
2022-09-25T11:02:34.035Z,10.43
2022-09-25T11:04:34.538Z,3.00
2022-09-25T11:05:01.490Z,10.80
2022-09-25T11:07:28.968Z,10.07
2022-09-25T11:09:35.926Z,2.50
2022-09-25T11:09:59.993Z,9.27
2022-09-25T11:12:29.804Z,9.57
2022-09-25T11:15:02.364Z,9.07
2022-09-25T11:17:41.209Z,7.90
2022-09-25T11:20:16.959Z,8.47
2022-09-25T11:20:30.731Z,3.87
2022-09-25T11:22:55.663Z,8.70
2022-09-25T11:23:42.018Z,3.00
2022-09-25T11:25:35.280Z,7.60
2022-09-25T11:26:14.491Z,3.40
2022-09-25T11:28:14.796Z,7.47
2022-09-25T11:30:49.434Z,8.87
2022-09-25T11:31:30.714Z,3.60
2022-09-25T11:33:32.458Z,9.60
2022-09-25T11:34:11.330Z,3.80
2022-09-25T11:36:22.089Z,8.70
2022-09-25T11:39:12.952Z,8.30
2022-09-25T11:39:41.437Z,3.60
2022-09-25T11:41:56.065Z,9.20
2022-09-25T11:42:15.741Z,2.60
2022-09-25T11:44:36.941Z,8.60
2022-09-25T11:44:55.726Z,3.40
2022-09-25T11:47:24.436Z,9.47
2022-09-25T11:47:29.605Z,2.43
2022-09-25T11:49:53.581Z,9.47
2022-09-25T11:52:59.272Z,8.47
2022-09-25T11:55:50.055Z,7.90
2022-09-25T11:58:35.351Z,8.07
2022-09-25T12:01:29.086Z,9.07
2022-09-25T12:04:20.662Z,8.20
2022-09-25T12:07:12.787Z,8.97
2022-09-25T12:10:04.031Z,8.77
2022-09-25T12:12:41.498Z,8.43
2022-09-25T12:15:10.892Z,9.40
2022-09-25T12:18:01.963Z,8.57
2022-09-25T12:20:52.673Z,7.87
2022-09-25T12:23:32.350Z,8.10
2022-09-25T12:26:23.540Z,6.97
2022-09-25T12:29:20.959Z,6.97
2022-09-25T12:32:14.821Z,6.10
2022-09-25T12:34:00.057Z,2.20
2022-09-25T12:34:59.184Z,6.27
2022-09-25T12:38:05.624Z,6.00
2022-09-25T12:39:25.118Z,2.53
2022-09-25T12:40:44.741Z,5.53
2022-09-25T12:41:57.131Z,1.50
2022-09-25T12:43:14.748Z,4.97
2022-09-25T12:44:32.830Z,2.03
2022-09-25T12:46:07.005Z,5.43
2022-09-25T12:48:50.424Z,5.70
2022-09-25T12:51:25.665Z,6.03
2022-09-25T12:52:31.811Z,2.40
2022-09-25T12:54:02.893Z,5.43
2022-09-25T12:56:42.477Z,4.57
2022-09-25T12:57:52.001Z,2.17
2022-09-25T12:59:19.985Z,3.87
2022-09-25T13:00:23.202Z,2.43
2022-09-25T13:02:16.891Z,5.20
2022-09-25T13:02:57.304Z,2.10
2022-09-25T13:05:21.759Z,4.37
2022-09-25T13:05:40.015Z,2.37
2022-09-25T13:08:07.345Z,4.70
2022-09-25T13:08:15.691Z,1.90
2022-09-25T13:10:42.413Z,4.43
2022-09-25T13:13:25.941Z,3.97
2022-09-25T13:15:56.127Z,4.30
2022-09-25T13:15:58.092Z,1.60
2022-09-25T13:18:25.058Z,4.23
2022-09-25T13:18:27.831Z,1.53
2022-09-25T13:20:56.883Z,3.80
2022-09-25T13:20:58.638Z,1.67
2022-09-25T13:23:31.199Z,2.00
2022-09-25T13:23:35.600Z,3.93
2022-09-25T13:26:12.802Z,3.50
2022-09-25T13:28:48.177Z,3.47
2022-09-25T13:31:23.699Z,3.30
2022-09-25T13:31:54.439Z,1.50
2022-09-25T13:33:52.493Z,3.73
2022-09-25T13:34:40.162Z,1.67
2022-09-25T13:36:23.283Z,3.83
2022-09-25T13:39:16.340Z,3.13
2022-09-25T13:42:02.524Z,3.40
2022-09-25T13:43:07.302Z,1.97
2022-09-25T13:44:43.836Z,3.80
2022-09-25T13:47:25.305Z,5.20
2022-09-25T13:48:32.409Z,1.50
2022-09-25T13:49:53.887Z,4.60
2022-09-25T13:51:28.908Z,1.70
2022-09-25T13:53:16.452Z,3.50
2022-09-25T13:56:03.238Z,3.30
2022-09-25T13:58:32.265Z,3.20
2022-09-25T14:01:01.081Z,4.30
2022-09-25T14:02:53.542Z,1.80
2022-09-25T14:03:41.773Z,3.20
2022-09-25T14:06:24.079Z,3.30
2022-09-25T14:08:05.939Z,1.50
2022-09-25T14:08:58.120Z,2.97
2022-09-25T14:11:31.499Z,3.30
2022-09-25T14:13:32.817Z,1.30
2022-09-25T14:14:01.723Z,4.07
2022-09-25T14:16:17.433Z,1.33
2022-09-25T14:16:33.291Z,2.97
2022-09-25T14:18:54.822Z,1.53
2022-09-25T14:19:01.968Z,2.60
2022-09-25T14:21:30.608Z,3.37
2022-09-25T14:24:11.785Z,3.23
2022-09-25T14:26:44.987Z,2.27
2022-09-25T14:29:17.517Z,2.43
2022-09-25T14:32:09.180Z,1.90
2022-09-25T14:32:55.975Z,1.40
2022-09-25T14:35:19.244Z,2.17
2022-09-25T14:35:37.582Z,1.57
2022-09-25T14:38:16.345Z,2.40
2022-09-25T14:38:35.913Z,1.80
2022-09-25T14:41:26.215Z,2.50
2022-09-25T14:44:18.721Z,2.27
2022-09-25T14:44:37.905Z,2.00
2022-09-25T14:47:05.400Z,2.37
2022-09-25T14:49:38.397Z,1.50
2022-09-25T14:49:40.356Z,1.70
2022-09-25T14:52:14.777Z,1.60
2022-09-25T14:54:44.498Z,1.90
2022-09-25T14:54:46.323Z,1.60
2022-09-25T14:57:19.066Z,1.97
2022-09-25T14:57:19.875Z,2.30
2022-09-25T14:59:52.348Z,1.70
2022-09-25T15:02:31.662Z,1.57
2022-09-25T15:03:04.129Z,2.40
2022-09-25T15:04:59.093Z,1.67
2022-09-25T15:05:35.116Z,1.37
2022-09-25T15:07:27.747Z,1.67
2022-09-25T15:09:55.949Z,1.43
2022-09-25T15:10:36.454Z,1.63
2022-09-25T15:12:35.851Z,1.20
2022-09-25T15:15:02.332Z,2.20
2022-09-25T15:16:18.120Z,1.47
2022-09-25T15:17:31.130Z,1.40
2022-09-25T15:20:00.781Z,1.70
2022-09-25T15:22:36.877Z,1.60
2022-09-25T15:24:06.924Z,1.40
2022-09-25T15:25:05.862Z,1.60
2022-09-25T15:27:32.848Z,1.90
2022-09-25T15:29:20.046Z,1.93
2022-09-25T15:30:03.106Z,1.00
2022-09-25T15:32:39.474Z,1.50
2022-09-25T15:35:23.553Z,1.40
2022-09-25T15:38:00.512Z,1.50
2022-09-25T15:39:49.040Z,1.77
2022-09-25T15:40:30.701Z,1.43
2022-09-25T15:42:18.013Z,1.37
2022-09-25T15:42:59.392Z,1.57
2022-09-25T15:45:34.605Z,1.50
2022-09-25T15:48:09.130Z,1.40
2022-09-25T15:50:36.247Z,1.80
2022-09-25T15:53:03.133Z,1.30
2022-09-25T15:53:10.659Z,2.03
2022-09-25T15:55:32.878Z,1.30
2022-09-25T15:55:39.316Z,1.70
2022-09-25T15:58:11.148Z,1.90
2022-09-25T16:00:56.683Z,1.40
2022-09-25T16:01:17.372Z,1.30
2022-09-25T16:03:44.834Z,1.50
2022-09-25T16:04:07.755Z,1.60
2022-09-25T16:06:16.633Z,1.57
2022-09-25T16:08:43.664Z,1.17
2022-09-25T16:11:24.132Z,1.60
2022-09-25T16:13:53.933Z,1.30
2022-09-25T16:16:23.728Z,1.50
2022-09-25T16:18:51.254Z,1.20
2022-09-25T16:21:33.794Z,1.40
2022-09-25T16:24:07.239Z,1.90
2022-09-25T16:26:38.563Z,1.40
2022-09-25T16:26:39.435Z,1.80
2022-09-25T16:29:16.774Z,1.87
2022-09-25T16:31:44.871Z,1.60
2022-09-25T16:31:53.750Z,1.90
2022-09-25T16:34:27.200Z,1.60
2022-09-25T16:34:38.873Z,1.60
2022-09-25T16:37:06.480Z,1.40
2022-09-25T16:37:18.526Z,1.37
2022-09-25T16:39:36.847Z,1.23
2022-09-25T16:39:45.070Z,2.00
2022-09-25T16:42:42.203Z,1.77
2022-09-25T16:45:09.198Z,1.70
2022-09-25T16:45:42.963Z,1.97
2022-09-25T16:47:37.930Z,1.63
2022-09-25T16:48:29.949Z,1.37
2022-09-25T16:50:59.858Z,1.30
2022-09-25T16:52:38.613Z,2.00
2022-09-25T16:53:27.480Z,1.43
2022-09-25T16:55:12.538Z,1.60
2022-09-25T16:55:54.361Z,2.23
2022-09-25T16:58:22.829Z,1.90
2022-09-25T17:00:18.721Z,1.80
2022-09-25T17:00:50.427Z,1.57
2022-09-25T17:02:49.375Z,1.67
2022-09-25T17:03:17.087Z,3.10
2022-09-25T17:05:21.158Z,1.53
2022-09-25T17:05:43.798Z,4.30
2022-09-25T17:07:52.018Z,1.73
2022-09-25T17:08:16.507Z,4.50
2022-09-25T17:10:23.554Z,1.50
2022-09-25T17:10:44.212Z,4.80
2022-09-25T17:13:11.625Z,1.57
2022-09-25T17:13:16.975Z,3.90
2022-09-25T17:15:44.125Z,4.00
2022-09-25T17:15:44.735Z,1.50
2022-09-25T17:18:18.912Z,1.90
2022-09-25T17:18:21.115Z,3.60
2022-09-25T17:20:47.611Z,2.00
2022-09-25T17:20:54.824Z,3.10
2022-09-25T17:23:23.500Z,2.80
2022-09-25T17:26:00.835Z,2.40
2022-09-25T17:28:27.896Z,2.13
2022-09-25T17:30:54.476Z,2.10
2022-09-25T17:31:03.066Z,1.87
2022-09-25T17:33:22.524Z,2.10
2022-09-25T17:36:04.026Z,2.63
2022-09-25T17:36:08.526Z,1.80
2022-09-25T17:38:34.368Z,2.20
2022-09-25T17:41:05.577Z,1.80
2022-09-25T17:43:33.021Z,2.00
2022-09-25T17:43:55.916Z,1.60
2022-09-25T17:46:00.984Z,1.50
2022-09-25T17:46:25.703Z,1.80
2022-09-25T17:48:29.963Z,1.80
2022-09-25T17:50:58.431Z,1.47
2022-09-25T17:53:27.814Z,2.00
2022-09-25T17:55:55.393Z,2.00
2022-09-25T17:58:23.579Z,2.23
2022-09-25T18:00:51.274Z,1.60
2022-09-25T18:03:18.521Z,1.37
2022-09-25T18:05:45.998Z,1.80
2022-09-25T18:08:13.508Z,1.87
2022-09-25T18:10:41.122Z,1.87
2022-09-25T18:13:12.004Z,2.08
2022-09-25T18:15:42.478Z,1.73
2022-09-25T18:18:09.987Z,2.33
2022-09-25T18:20:55.952Z,2.53
2022-09-25T18:23:22.494Z,2.20
2022-09-25T18:25:49.296Z,2.80
2022-09-25T18:28:17.704Z,2.33
2022-09-25T18:30:44.317Z,2.23
2022-09-25T18:33:11.304Z,2.30
2022-09-25T18:35:40.304Z,1.83
2022-09-25T18:35:58.006Z,2.00
2022-09-25T18:38:07.267Z,1.80
2022-09-25T18:38:26.615Z,2.30
2022-09-25T18:40:33.842Z,2.60
2022-09-25T18:43:01.500Z,2.43
2022-09-25T18:45:28.100Z,2.00
2022-09-25T18:46:04.781Z,3.93
2022-09-25T18:47:54.609Z,2.70
2022-09-25T18:50:21.290Z,2.23
2022-09-25T18:52:49.892Z,2.23
2022-09-25T18:53:40.745Z,2.30
2022-09-25T18:55:17.467Z,2.20
2022-09-25T18:57:44.068Z,2.40
2022-09-25T19:00:11.782Z,2.90
2022-09-25T19:01:22.610Z,3.00
2022-09-25T19:02:42.519Z,3.00
2022-09-25T19:05:09.863Z,4.07
2022-09-25T19:07:38.927Z,3.17
2022-09-25T19:09:05.069Z,3.57
2022-09-25T19:10:09.407Z,3.67
2022-09-25T19:11:33.683Z,4.70
2022-09-25T19:12:36.463Z,4.67
2022-09-25T19:15:04.654Z,6.07
2022-09-25T19:16:37.989Z,3.90
2022-09-25T19:17:31.941Z,8.00
2022-09-25T19:19:58.701Z,9.68
2022-09-25T19:22:25.262Z,8.20
2022-09-25T19:24:52.703Z,7.67
2022-09-25T19:27:19.664Z,6.80
2022-09-25T19:29:47.097Z,6.72
2022-09-25T19:32:15.515Z,7.05
2022-09-25T19:33:05.714Z,4.00
2022-09-25T19:34:54.382Z,6.53
2022-09-25T19:35:34.064Z,4.10
2022-09-25T19:37:33.109Z,5.13
2022-09-25T19:38:06.869Z,4.13
2022-09-25T19:40:24.008Z,4.28
2022-09-25T19:40:39.900Z,4.33
2022-09-25T19:42:50.703Z,5.32
2022-09-25T19:43:09.494Z,3.70
2022-09-25T19:45:18.652Z,5.05
2022-09-25T19:47:46.807Z,6.72
2022-09-25T19:48:11.274Z,3.70
2022-09-25T19:50:13.854Z,10.15
2022-09-25T19:50:41.967Z,3.13
2022-09-25T19:52:40.860Z,9.25
2022-09-25T19:53:16.287Z,2.80
2022-09-25T19:55:08.073Z,8.73
2022-09-25T19:57:35.095Z,7.40
2022-09-25T20:00:02.225Z,6.03
2022-09-25T20:02:29.225Z,5.20
2022-09-25T20:03:30.091Z,3.00
2022-09-25T20:04:56.256Z,4.50
2022-09-25T20:07:23.231Z,4.35
2022-09-25T20:09:50.193Z,5.00
2022-09-25T20:12:17.196Z,5.47
2022-09-25T20:13:38.932Z,4.30
2022-09-25T20:14:44.707Z,5.63
2022-09-25T20:16:12.017Z,4.20
2022-09-25T20:17:16.260Z,6.07
2022-09-25T20:18:40.743Z,2.80
2022-09-25T20:19:43.972Z,7.15
2022-09-25T20:22:10.989Z,7.43
2022-09-25T20:23:44.199Z,4.53
2022-09-25T20:24:38.068Z,9.77
2022-09-25T20:27:05.060Z,11.43
2022-09-25T20:28:47.394Z,4.97
2022-09-25T20:29:32.046Z,12.07
2022-09-25T20:31:17.525Z,5.50
2022-09-25T20:31:59.091Z,11.25
2022-09-25T20:34:26.060Z,8.52
2022-09-25T20:36:53.136Z,7.10
2022-09-25T20:38:53.244Z,6.30
2022-09-25T20:39:21.504Z,8.60
2022-09-25T20:41:23.087Z,7.20
2022-09-25T20:41:49.157Z,11.25
2022-09-25T20:43:52.878Z,8.20
2022-09-25T20:44:16.252Z,33.95
2022-09-25T20:46:43.685Z,40.55
2022-09-25T20:48:52.648Z,6.90
2022-09-25T20:49:11.024Z,46.95
2022-09-25T20:51:38.304Z,45.25
2022-09-25T20:54:06.973Z,59.17
2022-09-25T20:54:09.602Z,4.03
2022-09-25T20:56:34.505Z,64.35
2022-09-25T20:59:02.152Z,54.53
2022-09-25T21:01:31.223Z,31.70
2022-09-25T21:01:51.092Z,5.90
2022-09-25T21:04:01.941Z,12.63
2022-09-25T21:04:19.954Z,5.87
2022-09-25T21:06:30.372Z,8.88
2022-09-25T21:08:58.865Z,5.70
2022-09-25T21:11:27.626Z,5.45
2022-09-25T21:13:58.055Z,5.00
2022-09-25T21:14:33.547Z,3.90
2022-09-25T21:16:26.395Z,5.97
2022-09-25T21:17:01.913Z,5.10
2022-09-25T21:19:01.321Z,5.65
2022-09-25T21:19:30.665Z,5.83
2022-09-25T21:21:28.818Z,5.90
2022-09-25T21:23:56.799Z,4.15
2022-09-25T21:26:26.119Z,4.07
2022-09-25T21:27:01.828Z,5.60
2022-09-25T21:28:54.777Z,3.47
2022-09-25T21:29:31.843Z,5.97
2022-09-25T21:31:23.884Z,4.30
2022-09-25T21:31:59.937Z,6.43
2022-09-25T21:33:52.629Z,12.25
2022-09-25T21:36:20.318Z,27.67
2022-09-25T21:37:01.423Z,6.17
2022-09-25T21:38:47.470Z,26.45
2022-09-25T21:39:31.037Z,5.03
2022-09-25T21:41:15.512Z,16.23
2022-09-25T21:43:42.856Z,11.98
2022-09-25T21:44:32.603Z,5.70
2022-09-25T21:46:14.405Z,6.47
2022-09-25T21:48:44.707Z,7.88
2022-09-25T21:49:35.124Z,4.77
2022-09-25T21:51:13.331Z,8.63
2022-09-25T21:53:40.320Z,6.50
2022-09-25T21:56:08.715Z,4.45
2022-09-25T21:58:36.825Z,5.30
2022-09-25T22:01:05.267Z,6.00
2022-09-25T22:02:40.506Z,4.33
2022-09-25T22:03:36.375Z,5.55
2022-09-25T22:05:11.298Z,4.77
2022-09-25T22:06:04.653Z,5.13
2022-09-25T22:07:40.460Z,4.90
2022-09-25T22:08:32.005Z,8.85
2022-09-25T22:10:10.662Z,7.10
2022-09-25T22:10:59.549Z,16.30
2022-09-25T22:13:27.226Z,21.88
2022-09-25T22:15:12.897Z,4.40
2022-09-25T22:16:05.040Z,21.35
2022-09-25T22:17:41.146Z,4.33
2022-09-25T22:18:32.742Z,19.70
2022-09-25T22:20:13.047Z,5.40
2022-09-25T22:20:59.952Z,20.40